sensor_id;sensor_type;location;lat;lon;timestamp;P1;durP1;ratioP1;P2;durP2;ratioP2
46439;SDS011;32138;50.966;6.968;2022-08-14T00:00:08;5.28;;;3.60;;
46439;SDS011;32138;50.966;6.968;2022-08-14T00:02:12;5.63;;;4.15;;
46439;SDS011;32138;50.966;6.968;2022-08-14T00:04:13;5.22;;;3.75;;
46439;SDS011;32138;50.966;6.968;2022-08-14T00:06:14;6.57;;;4.25;;
46439;SDS011;32138;50.966;6.968;2022-08-14T00:08:15;7.63;;;4.85;;
46439;SDS011;32138;50.966;6.968;2022-08-14T00:10:18;5.40;;;4.55;;
46439;SDS011;32138;50.966;6.968;2022-08-14T00:12:20;9.00;;;4.47;;
46439;SDS011;32138;50.966;6.968;2022-08-14T00:14:22;6.75;;;3.90;;
46439;SDS011;32138;50.966;6.968;2022-08-14T00:16:26;4.85;;;4.20;;
46439;SDS011;32138;50.966;6.968;2022-08-14T00:18:27;7.45;;;4.30;;
46439;SDS011;32138;50.966;6.968;2022-08-14T00:20:30;5.35;;;4.85;;
46439;SDS011;32138;50.966;6.968;2022-08-14T00:22:34;6.82;;;4.50;;
46439;SDS011;32138;50.966;6.968;2022-08-14T00:24:34;5.18;;;4.68;;
46439;SDS011;32138;50.966;6.968;2022-08-14T00:26:35;6.20;;;4.10;;
46439;SDS011;32138;50.966;6.968;2022-08-14T00:28:36;5.72;;;4.47;;
46439;SDS011;32138;50.966;6.968;2022-08-14T00:30:37;6.65;;;4.93;;
46439;SDS011;32138;50.966;6.968;2022-08-14T00:32:38;6.82;;;4.65;;
46439;SDS011;32138;50.966;6.968;2022-08-14T00:34:39;4.95;;;4.55;;
46439;SDS011;32138;50.966;6.968;2022-08-14T00:36:40;5.88;;;4.50;;
46439;SDS011;32138;50.966;6.968;2022-08-14T00:38:41;7.05;;;5.20;;
46439;SDS011;32138;50.966;6.968;2022-08-14T00:40:42;6.03;;;4.82;;
46439;SDS011;32138;50.966;6.968;2022-08-14T00:42:43;7.80;;;4.75;;
46439;SDS011;32138;50.966;6.968;2022-08-14T00:44:44;7.90;;;5.00;;
46439;SDS011;32138;50.966;6.968;2022-08-14T00:46:45;6.10;;;4.25;;
46439;SDS011;32138;50.966;6.968;2022-08-14T00:48:48;5.63;;;4.78;;
46439;SDS011;32138;50.966;6.968;2022-08-14T00:50:49;9.50;;;5.32;;
46439;SDS011;32138;50.966;6.968;2022-08-14T00:52:50;7.00;;;5.13;;
46439;SDS011;32138;50.966;6.968;2022-08-14T00:54:51;7.13;;;5.28;;
46439;SDS011;32138;50.966;6.968;2022-08-14T00:56:53;5.57;;;4.95;;
46439;SDS011;32138;50.966;6.968;2022-08-14T00:58:54;8.82;;;5.88;;
46439;SDS011;32138;50.966;6.968;2022-08-14T01:00:59;6.25;;;5.55;;
46439;SDS011;32138;50.966;6.968;2022-08-14T01:03:09;6.25;;;5.38;;
46439;SDS011;32138;50.966;6.968;2022-08-14T01:05:10;8.45;;;5.40;;
46439;SDS011;32138;50.966;6.968;2022-08-14T01:07:24;7.13;;;5.65;;
46439;SDS011;32138;50.966;6.968;2022-08-14T01:09:28;6.63;;;6.03;;
46439;SDS011;32138;50.966;6.968;2022-08-14T01:11:30;5.60;;;5.03;;
46439;SDS011;32138;50.966;6.968;2022-08-14T01:13:33;7.05;;;6.25;;
46439;SDS011;32138;50.966;6.968;2022-08-14T01:15:35;5.97;;;5.38;;
46439;SDS011;32138;50.966;6.968;2022-08-14T01:17:36;7.50;;;5.65;;
46439;SDS011;32138;50.966;6.968;2022-08-14T01:19:55;8.30;;;6.03;;
46439;SDS011;32138;50.966;6.968;2022-08-14T01:22:15;8.60;;;6.53;;
46439;SDS011;32138;50.966;6.968;2022-08-14T01:24:17;9.20;;;6.30;;
46439;SDS011;32138;50.966;6.968;2022-08-14T01:26:20;7.70;;;6.15;;
46439;SDS011;32138;50.966;6.968;2022-08-14T01:28:23;8.63;;;6.35;;
46439;SDS011;32138;50.966;6.968;2022-08-14T01:30:28;6.68;;;5.97;;
46439;SDS011;32138;50.966;6.968;2022-08-14T01:32:31;7.63;;;6.10;;
46439;SDS011;32138;50.966;6.968;2022-08-14T01:34:32;8.10;;;6.50;;
46439;SDS011;32138;50.966;6.968;2022-08-14T01:36:33;7.10;;;5.82;;
46439;SDS011;32138;50.966;6.968;2022-08-14T01:38:38;7.55;;;6.38;;
46439;SDS011;32138;50.966;6.968;2022-08-14T01:40:41;7.43;;;6.28;;
46439;SDS011;32138;50.966;6.968;2022-08-14T01:42:42;7.05;;;6.45;;
46439;SDS011;32138;50.966;6.968;2022-08-14T01:44:43;8.75;;;7.15;;
46439;SDS011;32138;50.966;6.968;2022-08-14T01:46:50;8.68;;;6.97;;
46439;SDS011;32138;50.966;6.968;2022-08-14T01:48:53;7.40;;;6.65;;
46439;SDS011;32138;50.966;6.968;2022-08-14T01:50:56;7.63;;;6.40;;
46439;SDS011;32138;50.966;6.968;2022-08-14T01:53:00;7.68;;;6.72;;
46439;SDS011;32138;50.966;6.968;2022-08-14T01:55:04;9.98;;;6.80;;
46439;SDS011;32138;50.966;6.968;2022-08-14T01:57:08;8.85;;;7.00;;
46439;SDS011;32138;50.966;6.968;2022-08-14T02:01:18;9.73;;;6.60;;
46439;SDS011;32138;50.966;6.968;2022-08-14T02:03:19;7.10;;;6.40;;
46439;SDS011;32138;50.966;6.968;2022-08-14T02:05:24;8.15;;;7.22;;
46439;SDS011;32138;50.966;6.968;2022-08-14T02:07:29;7.95;;;7.18;;
46439;SDS011;32138;50.966;6.968;2022-08-14T02:09:31;9.20;;;7.43;;
46439;SDS011;32138;50.966;6.968;2022-08-14T02:11:34;7.82;;;7.07;;
46439;SDS011;32138;50.966;6.968;2022-08-14T02:13:35;7.57;;;6.88;;
46439;SDS011;32138;50.966;6.968;2022-08-14T02:15:37;7.53;;;6.40;;
46439;SDS011;32138;50.966;6.968;2022-08-14T02:17:39;8.35;;;7.40;;
46439;SDS011;32138;50.966;6.968;2022-08-14T02:19:41;8.73;;;6.88;;
46439;SDS011;32138;50.966;6.968;2022-08-14T02:21:42;7.90;;;7.00;;
46439;SDS011;32138;50.966;6.968;2022-08-14T02:23:46;8.10;;;7.35;;
46439;SDS011;32138;50.966;6.968;2022-08-14T02:25:49;8.20;;;7.43;;
46439;SDS011;32138;50.966;6.968;2022-08-14T02:27:50;8.27;;;7.45;;
46439;SDS011;32138;50.966;6.968;2022-08-14T02:29:55;8.07;;;7.28;;
46439;SDS011;32138;50.966;6.968;2022-08-14T02:31:56;8.18;;;7.15;;
46439;SDS011;32138;50.966;6.968;2022-08-14T02:34:01;7.70;;;6.55;;
46439;SDS011;32138;50.966;6.968;2022-08-14T02:38:11;8.07;;;7.25;;
46439;SDS011;32138;50.966;6.968;2022-08-14T02:40:12;7.82;;;7.13;;
46439;SDS011;32138;50.966;6.968;2022-08-14T02:42:16;8.25;;;7.53;;
46439;SDS011;32138;50.966;6.968;2022-08-14T02:44:20;7.90;;;7.20;;
46439;SDS011;32138;50.966;6.968;2022-08-14T02:46:22;8.15;;;7.35;;
46439;SDS011;32138;50.966;6.968;2022-08-14T02:48:22;7.65;;;6.80;;
46439;SDS011;32138;50.966;6.968;2022-08-14T02:50:35;9.57;;;8.02;;
46439;SDS011;32138;50.966;6.968;2022-08-14T02:52:37;8.98;;;8.07;;
46439;SDS011;32138;50.966;6.968;2022-08-14T02:54:38;9.23;;;7.30;;
46439;SDS011;32138;50.966;6.968;2022-08-14T02:56:39;9.52;;;7.70;;
46439;SDS011;32138;50.966;6.968;2022-08-14T02:58:46;10.98;;;8.45;;
46439;SDS011;32138;50.966;6.968;2022-08-14T03:00:50;9.10;;;7.85;;
46439;SDS011;32138;50.966;6.968;2022-08-14T03:02:51;9.82;;;8.60;;
46439;SDS011;32138;50.966;6.968;2022-08-14T03:04:52;12.02;;;7.70;;
46439;SDS011;32138;50.966;6.968;2022-08-14T03:06:53;11.07;;;8.45;;
46439;SDS011;32138;50.966;6.968;2022-08-14T03:08:54;8.95;;;7.60;;
46439;SDS011;32138;50.966;6.968;2022-08-14T03:10:55;11.93;;;7.60;;
46439;SDS011;32138;50.966;6.968;2022-08-14T03:12:58;7.55;;;6.63;;
46439;SDS011;32138;50.966;6.968;2022-08-14T03:15:03;9.93;;;7.65;;
46439;SDS011;32138;50.966;6.968;2022-08-14T03:17:12;12.20;;;8.20;;
46439;SDS011;32138;50.966;6.968;2022-08-14T03:19:14;8.32;;;7.53;;
46439;SDS011;32138;50.966;6.968;2022-08-14T03:21:17;8.98;;;8.13;;
46439;SDS011;32138;50.966;6.968;2022-08-14T03:23:23;10.00;;;7.32;;
46439;SDS011;32138;50.966;6.968;2022-08-14T03:25:23;9.52;;;8.10;;
46439;SDS011;32138;50.966;6.968;2022-08-14T03:27:24;10.38;;;7.95;;
46439;SDS011;32138;50.966;6.968;2022-08-14T03:29:28;9.18;;;7.85;;
46439;SDS011;32138;50.966;6.968;2022-08-14T03:31:29;7.90;;;7.20;;
46439;SDS011;32138;50.966;6.968;2022-08-14T03:33:30;9.95;;;7.97;;
46439;SDS011;32138;50.966;6.968;2022-08-14T03:35:31;9.52;;;7.82;;
46439;SDS011;32138;50.966;6.968;2022-08-14T03:37:32;9.13;;;8.25;;
46439;SDS011;32138;50.966;6.968;2022-08-14T03:39:33;10.43;;;7.63;;
46439;SDS011;32138;50.966;6.968;2022-08-14T03:41:35;9.95;;;7.90;;
46439;SDS011;32138;50.966;6.968;2022-08-14T03:43:35;11.18;;;8.70;;
46439;SDS011;32138;50.966;6.968;2022-08-14T03:45:38;8.57;;;7.80;;
46439;SDS011;32138;50.966;6.968;2022-08-14T03:47:40;11.20;;;8.85;;
46439;SDS011;32138;50.966;6.968;2022-08-14T03:49:41;7.97;;;7.18;;
46439;SDS011;32138;50.966;6.968;2022-08-14T03:51:45;9.30;;;7.10;;
46439;SDS011;32138;50.966;6.968;2022-08-14T03:53:46;8.63;;;7.75;;
46439;SDS011;32138;50.966;6.968;2022-08-14T03:55:48;8.02;;;7.18;;
46439;SDS011;32138;50.966;6.968;2022-08-14T03:57:48;8.82;;;7.80;;
46439;SDS011;32138;50.966;6.968;2022-08-14T03:59:49;12.43;;;7.95;;
46439;SDS011;32138;50.966;6.968;2022-08-14T04:01:50;10.40;;;6.82;;
46439;SDS011;32138;50.966;6.968;2022-08-14T04:03:52;7.70;;;6.30;;
46439;SDS011;32138;50.966;6.968;2022-08-14T04:05:56;7.93;;;7.20;;
46439;SDS011;32138;50.966;6.968;2022-08-14T04:07:57;7.70;;;7.10;;
46439;SDS011;32138;50.966;6.968;2022-08-14T04:09:59;8.60;;;7.80;;
46439;SDS011;32138;50.966;6.968;2022-08-14T04:12:00;8.57;;;7.72;;
46439;SDS011;32138;50.966;6.968;2022-08-14T04:14:02;11.60;;;7.47;;
46439;SDS011;32138;50.966;6.968;2022-08-14T04:16:04;8.30;;;7.10;;
46439;SDS011;32138;50.966;6.968;2022-08-14T04:18:09;9.77;;;7.10;;
46439;SDS011;32138;50.966;6.968;2022-08-14T04:20:11;8.32;;;7.53;;
46439;SDS011;32138;50.966;6.968;2022-08-14T04:22:12;9.15;;;7.30;;
46439;SDS011;32138;50.966;6.968;2022-08-14T04:24:13;8.43;;;7.63;;
46439;SDS011;32138;50.966;6.968;2022-08-14T04:26:16;10.38;;;7.63;;
46439;SDS011;32138;50.966;6.968;2022-08-14T04:28:18;9.23;;;7.53;;
46439;SDS011;32138;50.966;6.968;2022-08-14T04:30:20;8.95;;;7.30;;
46439;SDS011;32138;50.966;6.968;2022-08-14T04:32:21;8.80;;;8.00;;
46439;SDS011;32138;50.966;6.968;2022-08-14T04:34:25;10.55;;;8.00;;
46439;SDS011;32138;50.966;6.968;2022-08-14T04:36:26;8.45;;;7.65;;
46439;SDS011;32138;50.966;6.968;2022-08-14T04:38:26;8.68;;;7.78;;
46439;SDS011;32138;50.966;6.968;2022-08-14T04:40:46;9.90;;;7.75;;
46439;SDS011;32138;50.966;6.968;2022-08-14T04:43:05;9.27;;;8.48;;
46439;SDS011;32138;50.966;6.968;2022-08-14T04:45:25;10.20;;;8.95;;
46439;SDS011;32138;50.966;6.968;2022-08-14T04:47:37;9.20;;;8.25;;
46439;SDS011;32138;50.966;6.968;2022-08-14T04:49:56;9.57;;;7.53;;
46439;SDS011;32138;50.966;6.968;2022-08-14T04:51:58;11.57;;;7.78;;
46439;SDS011;32138;50.966;6.968;2022-08-14T04:53:59;9.70;;;8.70;;
46439;SDS011;32138;50.966;6.968;2022-08-14T04:56:00;8.18;;;7.38;;
46439;SDS011;32138;50.966;6.968;2022-08-14T04:58:04;8.90;;;7.88;;
46439;SDS011;32138;50.966;6.968;2022-08-14T05:00:05;10.10;;;8.65;;
46439;SDS011;32138;50.966;6.968;2022-08-14T05:02:07;9.20;;;8.32;;
46439;SDS011;32138;50.966;6.968;2022-08-14T05:04:08;9.10;;;8.23;;
46439;SDS011;32138;50.966;6.968;2022-08-14T05:06:11;9.63;;;8.60;;
46439;SDS011;32138;50.966;6.968;2022-08-14T05:08:12;10.15;;;8.43;;
46439;SDS011;32138;50.966;6.968;2022-08-14T05:10:13;9.25;;;7.90;;
46439;SDS011;32138;50.966;6.968;2022-08-14T05:12:14;9.73;;;8.82;;
46439;SDS011;32138;50.966;6.968;2022-08-14T05:14:15;13.93;;;9.65;;
46439;SDS011;32138;50.966;6.968;2022-08-14T05:16:17;9.40;;;8.48;;
46439;SDS011;32138;50.966;6.968;2022-08-14T05:18:19;11.82;;;8.88;;
46439;SDS011;32138;50.966;6.968;2022-08-14T05:20:25;10.13;;;9.13;;
46439;SDS011;32138;50.966;6.968;2022-08-14T05:22:26;14.18;;;8.68;;
46439;SDS011;32138;50.966;6.968;2022-08-14T05:24:27;9.65;;;8.75;;
46439;SDS011;32138;50.966;6.968;2022-08-14T05:26:28;10.57;;;9.52;;
46439;SDS011;32138;50.966;6.968;2022-08-14T05:28:30;11.25;;;9.45;;
46439;SDS011;32138;50.966;6.968;2022-08-14T05:30:34;10.60;;;9.45;;
46439;SDS011;32138;50.966;6.968;2022-08-14T05:32:34;9.85;;;8.95;;
46439;SDS011;32138;50.966;6.968;2022-08-14T05:34:35;9.60;;;8.48;;
46439;SDS011;32138;50.966;6.968;2022-08-14T05:36:36;9.32;;;8.38;;
46439;SDS011;32138;50.966;6.968;2022-08-14T05:38:39;9.95;;;8.73;;
46439;SDS011;32138;50.966;6.968;2022-08-14T05:40:44;9.95;;;9.05;;
46439;SDS011;32138;50.966;6.968;2022-08-14T05:42:46;11.20;;;8.40;;
46439;SDS011;32138;50.966;6.968;2022-08-14T05:44:47;9.48;;;8.60;;
46439;SDS011;32138;50.966;6.968;2022-08-14T05:46:48;10.15;;;9.25;;
46439;SDS011;32138;50.966;6.968;2022-08-14T05:48:49;9.75;;;8.88;;
46439;SDS011;32138;50.966;6.968;2022-08-14T05:50:53;9.93;;;9.00;;
46439;SDS011;32138;50.966;6.968;2022-08-14T05:52:55;9.60;;;8.70;;
46439;SDS011;32138;50.966;6.968;2022-08-14T05:54:55;9.82;;;8.85;;
46439;SDS011;32138;50.966;6.968;2022-08-14T05:56:57;10.27;;;9.18;;
46439;SDS011;32138;50.966;6.968;2022-08-14T05:58:57;10.10;;;9.30;;
46439;SDS011;32138;50.966;6.968;2022-08-14T06:00:58;9.80;;;8.90;;
46439;SDS011;32138;50.966;6.968;2022-08-14T06:02:59;10.75;;;9.18;;
46439;SDS011;32138;50.966;6.968;2022-08-14T06:05:03;12.05;;;10.00;;
46439;SDS011;32138;50.966;6.968;2022-08-14T06:07:04;9.85;;;8.85;;
46439;SDS011;32138;50.966;6.968;2022-08-14T06:09:05;10.18;;;9.10;;
46439;SDS011;32138;50.966;6.968;2022-08-14T06:11:08;10.48;;;8.48;;
46439;SDS011;32138;50.966;6.968;2022-08-14T06:13:09;10.88;;;9.30;;
46439;SDS011;32138;50.966;6.968;2022-08-14T06:15:10;9.60;;;8.57;;
46439;SDS011;32138;50.966;6.968;2022-08-14T06:17:11;9.70;;;8.80;;
46439;SDS011;32138;50.966;6.968;2022-08-14T06:19:11;10.13;;;9.00;;
46439;SDS011;32138;50.966;6.968;2022-08-14T06:21:12;9.13;;;8.05;;
46439;SDS011;32138;50.966;6.968;2022-08-14T06:23:14;11.02;;;9.27;;
46439;SDS011;32138;50.966;6.968;2022-08-14T06:25:15;9.82;;;8.95;;
46439;SDS011;32138;50.966;6.968;2022-08-14T06:27:17;9.70;;;8.80;;
46439;SDS011;32138;50.966;6.968;2022-08-14T06:29:18;9.98;;;8.98;;
46439;SDS011;32138;50.966;6.968;2022-08-14T06:31:19;13.35;;;9.30;;
46439;SDS011;32138;50.966;6.968;2022-08-14T06:33:20;10.70;;;8.88;;
46439;SDS011;32138;50.966;6.968;2022-08-14T06:35:21;11.18;;;8.90;;
46439;SDS011;32138;50.966;6.968;2022-08-14T06:37:22;9.40;;;8.43;;
46439;SDS011;32138;50.966;6.968;2022-08-14T06:39:23;10.50;;;9.50;;
46439;SDS011;32138;50.966;6.968;2022-08-14T06:41:24;9.60;;;8.80;;
46439;SDS011;32138;50.966;6.968;2022-08-14T06:43:25;10.40;;;9.50;;
46439;SDS011;32138;50.966;6.968;2022-08-14T06:45:26;9.77;;;8.88;;
46439;SDS011;32138;50.966;6.968;2022-08-14T06:47:28;10.88;;;8.75;;
46439;SDS011;32138;50.966;6.968;2022-08-14T06:49:29;9.98;;;9.00;;
46439;SDS011;32138;50.966;6.968;2022-08-14T06:51:30;10.55;;;8.32;;
46439;SDS011;32138;50.966;6.968;2022-08-14T06:53:31;10.00;;;9.20;;
46439;SDS011;32138;50.966;6.968;2022-08-14T06:55:32;10.02;;;8.98;;
46439;SDS011;32138;50.966;6.968;2022-08-14T06:57:34;10.88;;;9.65;;
46439;SDS011;32138;50.966;6.968;2022-08-14T06:59:40;9.70;;;8.90;;
46439;SDS011;32138;50.966;6.968;2022-08-14T07:01:41;10.35;;;9.13;;
46439;SDS011;32138;50.966;6.968;2022-08-14T07:04:01;9.95;;;9.13;;
46439;SDS011;32138;50.966;6.968;2022-08-14T07:06:20;10.00;;;9.00;;
46439;SDS011;32138;50.966;6.968;2022-08-14T07:08:22;10.75;;;9.65;;
46439;SDS011;32138;50.966;6.968;2022-08-14T07:10:29;10.73;;;9.63;;
46439;SDS011;32138;50.966;6.968;2022-08-14T07:12:30;9.98;;;8.43;;
46439;SDS011;32138;50.966;6.968;2022-08-14T07:14:31;9.63;;;8.25;;
46439;SDS011;32138;50.966;6.968;2022-08-14T07:16:32;9.48;;;8.57;;
46439;SDS011;32138;50.966;6.968;2022-08-14T07:18:34;10.68;;;8.43;;
46439;SDS011;32138;50.966;6.968;2022-08-14T07:20:35;10.50;;;9.02;;
46439;SDS011;32138;50.966;6.968;2022-08-14T07:22:37;8.95;;;7.97;;
46439;SDS011;32138;50.966;6.968;2022-08-14T07:24:38;9.38;;;8.30;;
46439;SDS011;32138;50.966;6.968;2022-08-14T07:26:38;9.80;;;8.93;;
46439;SDS011;32138;50.966;6.968;2022-08-14T07:28:40;9.07;;;8.25;;
46439;SDS011;32138;50.966;6.968;2022-08-14T07:30:41;9.45;;;8.52;;
46439;SDS011;32138;50.966;6.968;2022-08-14T07:32:42;10.32;;;9.43;;
46439;SDS011;32138;50.966;6.968;2022-08-14T07:34:43;10.02;;;8.43;;
46439;SDS011;32138;50.966;6.968;2022-08-14T07:36:44;9.45;;;8.57;;
46439;SDS011;32138;50.966;6.968;2022-08-14T07:38:45;9.23;;;8.25;;
46439;SDS011;32138;50.966;6.968;2022-08-14T07:40:46;9.38;;;8.48;;
46439;SDS011;32138;50.966;6.968;2022-08-14T07:42:50;8.73;;;8.02;;
46439;SDS011;32138;50.966;6.968;2022-08-14T07:44:51;9.77;;;8.48;;
46439;SDS011;32138;50.966;6.968;2022-08-14T07:46:52;9.38;;;8.43;;
46439;SDS011;32138;50.966;6.968;2022-08-14T07:48:53;7.72;;;6.97;;
46439;SDS011;32138;50.966;6.968;2022-08-14T07:50:56;9.02;;;8.10;;
46439;SDS011;32138;50.966;6.968;2022-08-14T07:52:57;12.07;;;10.85;;
46439;SDS011;32138;50.966;6.968;2022-08-14T07:54:59;10.02;;;9.02;;
46439;SDS011;32138;50.966;6.968;2022-08-14T07:57:00;10.95;;;9.82;;
46439;SDS011;32138;50.966;6.968;2022-08-14T07:59:01;9.52;;;8.63;;
46439;SDS011;32138;50.966;6.968;2022-08-14T08:01:02;8.57;;;7.75;;
46439;SDS011;32138;50.966;6.968;2022-08-14T08:03:08;9.05;;;8.25;;
46439;SDS011;32138;50.966;6.968;2022-08-14T08:05:10;8.43;;;7.55;;
46439;SDS011;32138;50.966;6.968;2022-08-14T08:07:13;9.45;;;8.55;;
46439;SDS011;32138;50.966;6.968;2022-08-14T08:09:14;11.05;;;9.93;;
46439;SDS011;32138;50.966;6.968;2022-08-14T08:11:17;13.82;;;9.45;;
46439;SDS011;32138;50.966;6.968;2022-08-14T08:13:18;11.35;;;10.35;;
46439;SDS011;32138;50.966;6.968;2022-08-14T08:15:20;10.10;;;9.23;;
46439;SDS011;32138;50.966;6.968;2022-08-14T08:17:23;8.43;;;7.68;;
46439;SDS011;32138;50.966;6.968;2022-08-14T08:19:24;8.90;;;7.85;;
46439;SDS011;32138;50.966;6.968;2022-08-14T08:21:25;8.50;;;7.78;;
46439;SDS011;32138;50.966;6.968;2022-08-14T08:23:26;9.43;;;8.52;;
46439;SDS011;32138;50.966;6.968;2022-08-14T08:25:30;10.07;;;9.10;;
46439;SDS011;32138;50.966;6.968;2022-08-14T08:29:39;8.38;;;7.40;;
46439;SDS011;32138;50.966;6.968;2022-08-14T08:31:47;9.02;;;8.13;;
46439;SDS011;32138;50.966;6.968;2022-08-14T08:33:50;7.90;;;7.22;;
46439;SDS011;32138;50.966;6.968;2022-08-14T08:35:52;8.93;;;8.05;;
46439;SDS011;32138;50.966;6.968;2022-08-14T08:38:04;10.45;;;9.00;;
46439;SDS011;32138;50.966;6.968;2022-08-14T08:40:07;41.58;;;18.33;;
46439;SDS011;32138;50.966;6.968;2022-08-14T08:42:09;13.10;;;9.63;;
46439;SDS011;32138;50.966;6.968;2022-08-14T08:44:10;9.07;;;8.23;;
46439;SDS011;32138;50.966;6.968;2022-08-14T08:46:12;8.40;;;7.60;;
46439;SDS011;32138;50.966;6.968;2022-08-14T08:48:19;10.02;;;8.30;;
46439;SDS011;32138;50.966;6.968;2022-08-14T08:50:24;8.93;;;8.02;;
46439;SDS011;32138;50.966;6.968;2022-08-14T08:52:34;8.88;;;7.93;;
46439;SDS011;32138;50.966;6.968;2022-08-14T08:54:34;8.77;;;7.88;;
46439;SDS011;32138;50.966;6.968;2022-08-14T08:56:47;8.70;;;7.68;;
46439;SDS011;32138;50.966;6.968;2022-08-14T08:58:49;10.60;;;8.10;;
46439;SDS011;32138;50.966;6.968;2022-08-14T09:00:53;14.02;;;7.60;;
46439;SDS011;32138;50.966;6.968;2022-08-14T09:03:00;10.00;;;7.93;;
46439;SDS011;32138;50.966;6.968;2022-08-14T09:05:10;11.35;;;7.70;;
46439;SDS011;32138;50.966;6.968;2022-08-14T09:07:13;8.30;;;7.57;;
46439;SDS011;32138;50.966;6.968;2022-08-14T09:11:19;8.45;;;7.65;;
46439;SDS011;32138;50.966;6.968;2022-08-14T09:13:22;7.90;;;7.20;;
46439;SDS011;32138;50.966;6.968;2022-08-14T09:15:26;7.95;;;7.25;;
46439;SDS011;32138;50.966;6.968;2022-08-14T09:17:27;7.43;;;6.80;;
46439;SDS011;32138;50.966;6.968;2022-08-14T09:19:28;7.85;;;7.15;;
46439;SDS011;32138;50.966;6.968;2022-08-14T09:21:29;9.32;;;7.53;;
46439;SDS011;32138;50.966;6.968;2022-08-14T09:23:33;8.32;;;7.13;;
46439;SDS011;32138;50.966;6.968;2022-08-14T09:25:36;16.60;;;7.05;;
46439;SDS011;32138;50.966;6.968;2022-08-14T09:27:40;6.72;;;6.15;;
46439;SDS011;32138;50.966;6.968;2022-08-14T09:29:41;6.88;;;6.18;;
46439;SDS011;32138;50.966;6.968;2022-08-14T09:31:42;7.40;;;6.43;;
46439;SDS011;32138;50.966;6.968;2022-08-14T09:33:54;7.10;;;6.45;;
46439;SDS011;32138;50.966;6.968;2022-08-14T09:36:24;10.13;;;6.32;;
46439;SDS011;32138;50.966;6.968;2022-08-14T09:40:50;7.90;;;6.50;;
46439;SDS011;32138;50.966;6.968;2022-08-14T09:43:06;6.50;;;5.90;;
46439;SDS011;32138;50.966;6.968;2022-08-14T09:49:44;6.70;;;6.00;;
46439;SDS011;32138;50.966;6.968;2022-08-14T09:51:45;6.72;;;5.50;;
46439;SDS011;32138;50.966;6.968;2022-08-14T09:53:47;7.18;;;5.97;;
46439;SDS011;32138;50.966;6.968;2022-08-14T09:56:11;6.82;;;4.97;;
46439;SDS011;32138;50.966;6.968;2022-08-14T09:58:16;7.18;;;5.25;;
46439;SDS011;32138;50.966;6.968;2022-08-14T10:00:21;6.13;;;5.50;;
46439;SDS011;32138;50.966;6.968;2022-08-14T10:02:55;8.13;;;5.60;;
46439;SDS011;32138;50.966;6.968;2022-08-14T10:05:06;9.70;;;5.80;;
46439;SDS011;32138;50.966;6.968;2022-08-14T10:07:09;5.45;;;4.95;;
46439;SDS011;32138;50.966;6.968;2022-08-14T10:09:10;5.70;;;5.20;;
46439;SDS011;32138;50.966;6.968;2022-08-14T10:11:14;5.65;;;5.05;;
46439;SDS011;32138;50.966;6.968;2022-08-14T10:13:26;6.65;;;5.20;;
46439;SDS011;32138;50.966;6.968;2022-08-14T10:15:28;6.32;;;4.90;;
46439;SDS011;32138;50.966;6.968;2022-08-14T10:17:31;5.75;;;5.15;;
46439;SDS011;32138;50.966;6.968;2022-08-14T10:19:32;6.72;;;6.07;;
46439;SDS011;32138;50.966;6.968;2022-08-14T10:21:34;5.95;;;4.95;;
46439;SDS011;32138;50.966;6.968;2022-08-14T10:23:41;4.75;;;4.32;;
46439;SDS011;32138;50.966;6.968;2022-08-14T10:25:47;5.70;;;4.85;;
46439;SDS011;32138;50.966;6.968;2022-08-14T10:28:00;6.93;;;4.40;;
46439;SDS011;32138;50.966;6.968;2022-08-14T10:30:01;7.03;;;5.70;;
46439;SDS011;32138;50.966;6.968;2022-08-14T10:32:03;4.72;;;4.25;;
46439;SDS011;32138;50.966;6.968;2022-08-14T10:36:11;9.68;;;6.07;;
46439;SDS011;32138;50.966;6.968;2022-08-14T10:38:12;9.00;;;5.90;;
46439;SDS011;32138;50.966;6.968;2022-08-14T10:40:14;9.32;;;8.13;;
46439;SDS011;32138;50.966;6.968;2022-08-14T10:42:33;4.60;;;4.18;;
46439;SDS011;32138;50.966;6.968;2022-08-14T10:44:42;3.60;;;3.30;;
46439;SDS011;32138;50.966;6.968;2022-08-14T10:46:49;7.45;;;4.07;;
46439;SDS011;32138;50.966;6.968;2022-08-14T10:49:02;5.97;;;4.35;;
46439;SDS011;32138;50.966;6.968;2022-08-14T10:51:02;5.25;;;4.30;;
46439;SDS011;32138;50.966;6.968;2022-08-14T10:53:03;6.68;;;4.32;;
46439;SDS011;32138;50.966;6.968;2022-08-14T10:55:08;6.93;;;4.13;;
46439;SDS011;32138;50.966;6.968;2022-08-14T10:57:27;5.95;;;4.13;;
46439;SDS011;32138;50.966;6.968;2022-08-14T10:59:29;6.25;;;4.18;;
46439;SDS011;32138;50.966;6.968;2022-08-14T11:01:59;5.13;;;4.63;;
46439;SDS011;32138;50.966;6.968;2022-08-14T11:03:59;6.93;;;4.72;;
46439;SDS011;32138;50.966;6.968;2022-08-14T11:06:09;6.65;;;4.63;;
46439;SDS011;32138;50.966;6.968;2022-08-14T11:08:28;8.05;;;4.50;;
46439;SDS011;32138;50.966;6.968;2022-08-14T11:10:42;4.72;;;4.18;;
46439;SDS011;32138;50.966;6.968;2022-08-14T11:12:44;7.22;;;4.28;;
46439;SDS011;32138;50.966;6.968;2022-08-14T11:14:56;11.20;;;10.02;;
46439;SDS011;32138;50.966;6.968;2022-08-14T11:17:00;13.75;;;12.40;;
46439;SDS011;32138;50.966;6.968;2022-08-14T11:19:01;6.03;;;5.43;;
46439;SDS011;32138;50.966;6.968;2022-08-14T11:21:03;8.68;;;4.90;;
46439;SDS011;32138;50.966;6.968;2022-08-14T11:23:07;4.63;;;4.22;;
46439;SDS011;32138;50.966;6.968;2022-08-14T11:25:11;3.75;;;3.38;;
46439;SDS011;32138;50.966;6.968;2022-08-14T11:27:14;8.25;;;4.00;;
46439;SDS011;32138;50.966;6.968;2022-08-14T11:29:18;5.43;;;4.03;;
46439;SDS011;32138;50.966;6.968;2022-08-14T11:31:21;4.65;;;4.25;;
46439;SDS011;32138;50.966;6.968;2022-08-14T11:33:23;4.47;;;4.00;;
46439;SDS011;32138;50.966;6.968;2022-08-14T11:35:30;5.18;;;3.95;;
46439;SDS011;32138;50.966;6.968;2022-08-14T11:37:30;5.43;;;4.00;;
46439;SDS011;32138;50.966;6.968;2022-08-14T11:39:32;7.25;;;3.63;;
46439;SDS011;32138;50.966;6.968;2022-08-14T11:41:33;4.05;;;3.70;;
46439;SDS011;32138;50.966;6.968;2022-08-14T11:43:37;3.95;;;3.63;;
46439;SDS011;32138;50.966;6.968;2022-08-14T11:45:46;5.90;;;3.97;;
46439;SDS011;32138;50.966;6.968;2022-08-14T11:47:48;5.05;;;3.90;;
46439;SDS011;32138;50.966;6.968;2022-08-14T11:49:55;4.47;;;3.85;;
46439;SDS011;32138;50.966;6.968;2022-08-14T11:51:56;5.18;;;4.00;;
46439;SDS011;32138;50.966;6.968;2022-08-14T11:54:00;5.57;;;3.88;;
46439;SDS011;32138;50.966;6.968;2022-08-14T11:56:04;4.57;;;3.55;;
46439;SDS011;32138;50.966;6.968;2022-08-14T11:58:07;4.00;;;3.65;;
46439;SDS011;32138;50.966;6.968;2022-08-14T12:00:11;4.25;;;3.63;;
46439;SDS011;32138;50.966;6.968;2022-08-14T12:02:18;4.05;;;3.63;;
46439;SDS011;32138;50.966;6.968;2022-08-14T12:04:18;4.85;;;3.38;;
46439;SDS011;32138;50.966;6.968;2022-08-14T12:06:20;5.82;;;3.95;;
46439;SDS011;32138;50.966;6.968;2022-08-14T12:08:20;4.68;;;4.15;;
46439;SDS011;32138;50.966;6.968;2022-08-14T12:10:32;4.72;;;4.32;;
46439;SDS011;32138;50.966;6.968;2022-08-14T12:12:38;5.07;;;4.68;;
46439;SDS011;32138;50.966;6.968;2022-08-14T12:14:58;6.40;;;4.18;;
46439;SDS011;32138;50.966;6.968;2022-08-14T12:19:07;4.28;;;3.88;;
46439;SDS011;32138;50.966;6.968;2022-08-14T12:23:24;5.50;;;4.00;;
46439;SDS011;32138;50.966;6.968;2022-08-14T12:25:25;4.65;;;4.25;;
46439;SDS011;32138;50.966;6.968;2022-08-14T12:27:42;5.90;;;4.07;;
46439;SDS011;32138;50.966;6.968;2022-08-14T12:29:51;4.05;;;3.65;;
46439;SDS011;32138;50.966;6.968;2022-08-14T12:31:57;5.55;;;3.90;;
46439;SDS011;32138;50.966;6.968;2022-08-14T12:34:06;4.00;;;3.70;;
46439;SDS011;32138;50.966;6.968;2022-08-14T12:36:08;4.05;;;3.75;;
46439;SDS011;32138;50.966;6.968;2022-08-14T12:38:30;4.43;;;4.00;;
46439;SDS011;32138;50.966;6.968;2022-08-14T12:40:46;4.53;;;3.97;;
46439;SDS011;32138;50.966;6.968;2022-08-14T12:42:48;4.90;;;4.22;;
46439;SDS011;32138;50.966;6.968;2022-08-14T12:44:54;4.72;;;3.70;;